sensor_id;sensor_type;location;lat;lon;timestamp;temperature;humidity
22192;DHT22;11261;52.456;10.850;2022-09-12T00:01:03;15.60;99.90
22192;DHT22;11261;52.456;10.850;2022-09-12T00:03:31;15.60;99.90
22192;DHT22;11261;52.456;10.850;2022-09-12T00:06:07;15.60;99.90
22192;DHT22;11261;52.456;10.850;2022-09-12T00:08:35;15.60;99.90
22192;DHT22;11261;52.456;10.850;2022-09-12T00:11:05;15.50;99.90
22192;DHT22;11261;52.456;10.850;2022-09-12T00:13:34;15.40;99.90
22192;DHT22;11261;52.456;10.850;2022-09-12T00:16:12;15.40;99.90
22192;DHT22;11261;52.456;10.850;2022-09-12T00:18:42;15.40;99.90
22192;DHT22;11261;52.456;10.850;2022-09-12T00:21:14;15.30;99.90
22192;DHT22;11261;52.456;10.850;2022-09-12T00:23:43;15.20;99.90
22192;DHT22;11261;52.456;10.850;2022-09-12T00:26:11;14.90;99.90
22192;DHT22;11261;52.456;10.850;2022-09-12T00:28:40;15.10;99.90
22192;DHT22;11261;52.456;10.850;2022-09-12T00:31:11;15.20;99.90
22192;DHT22;11261;52.456;10.850;2022-09-12T00:33:40;15.20;99.90
22192;DHT22;11261;52.456;10.850;2022-09-12T00:36:10;15.30;99.90
22192;DHT22;11261;52.456;10.850;2022-09-12T00:38:40;15.20;99.90
22192;DHT22;11261;52.456;10.850;2022-09-12T00:41:14;15.10;99.90
22192;DHT22;11261;52.456;10.850;2022-09-12T00:43:44;15.10;99.90
22192;DHT22;11261;52.456;10.850;2022-09-12T00:46:20;15.10;99.90
22192;DHT22;11261;52.456;10.850;2022-09-12T00:48:55;15.10;99.90
22192;DHT22;11261;52.456;10.850;2022-09-12T00:51:25;15.20;99.90
22192;DHT22;11261;52.456;10.850;2022-09-12T00:53:56;15.10;99.90
22192;DHT22;11261;52.456;10.850;2022-09-12T00:56:26;15.20;99.90
22192;DHT22;11261;52.456;10.850;2022-09-12T00:58:58;15.20;99.90
22192;DHT22;11261;52.456;10.850;2022-09-12T01:01:27;15.20;99.90
22192;DHT22;11261;52.456;10.850;2022-09-12T01:03:58;15.20;99.90
22192;DHT22;11261;52.456;10.850;2022-09-12T01:06:29;15.20;99.90
22192;DHT22;11261;52.456;10.850;2022-09-12T01:09:02;15.20;99.90
22192;DHT22;11261;52.456;10.850;2022-09-12T01:11:31;15.10;99.90
22192;DHT22;11261;52.456;10.850;2022-09-12T01:14:01;15.00;99.90
22192;DHT22;11261;52.456;10.850;2022-09-12T01:16:29;15.00;99.90
22192;DHT22;11261;52.456;10.850;2022-09-12T01:19:11;15.00;99.90
22192;DHT22;11261;52.456;10.850;2022-09-12T01:21:52;15.00;99.90
22192;DHT22;11261;52.456;10.850;2022-09-12T01:24:41;15.00;99.90
22192;DHT22;11261;52.456;10.850;2022-09-12T01:30:32;14.90;99.90
22192;DHT22;11261;52.456;10.850;2022-09-12T01:33:24;14.80;99.90
22192;DHT22;11261;52.456;10.850;2022-09-12T01:36:14;14.80;99.90
22192;DHT22;11261;52.456;10.850;2022-09-12T01:38:48;14.80;99.90
22192;DHT22;11261;52.456;10.850;2022-09-12T01:41:24;14.80;99.90
22192;DHT22;11261;52.456;10.850;2022-09-12T01:44:00;14.70;99.90
22192;DHT22;11261;52.456;10.850;2022-09-12T01:46:38;14.70;99.90
22192;DHT22;11261;52.456;10.850;2022-09-12T01:49:13;14.70;99.90
22192;DHT22;11261;52.456;10.850;2022-09-12T01:51:53;14.70;99.90
22192;DHT22;11261;52.456;10.850;2022-09-12T01:54:26;14.60;99.90
22192;DHT22;11261;52.456;10.850;2022-09-12T01:56:58;14.70;99.90
22192;DHT22;11261;52.456;10.850;2022-09-12T01:59:32;14.70;99.90
22192;DHT22;11261;52.456;10.850;2022-09-12T02:02:04;14.60;99.90
22192;DHT22;11261;52.456;10.850;2022-09-12T02:04:38;14.50;99.90
22192;DHT22;11261;52.456;10.850;2022-09-12T02:07:12;14.50;99.90
22192;DHT22;11261;52.456;10.850;2022-09-12T02:09:44;14.50;99.90
22192;DHT22;11261;52.456;10.850;2022-09-12T02:12:15;14.60;99.90
22192;DHT22;11261;52.456;10.850;2022-09-12T02:14:48;14.50;99.90
22192;DHT22;11261;52.456;10.850;2022-09-12T02:17:20;14.60;99.90
22192;DHT22;11261;52.456;10.850;2022-09-12T02:19:52;14.60;99.90
22192;DHT22;11261;52.456;10.850;2022-09-12T02:22:25;14.50;99.90
22192;DHT22;11261;52.456;10.850;2022-09-12T02:24:58;14.50;99.90
22192;DHT22;11261;52.456;10.850;2022-09-12T02:27:29;14.50;99.90
22192;DHT22;11261;52.456;10.850;2022-09-12T02:29:59;14.40;99.90
22192;DHT22;11261;52.456;10.850;2022-09-12T02:32:31;14.40;99.90
22192;DHT22;11261;52.456;10.850;2022-09-12T02:35:06;14.40;99.90
22192;DHT22;11261;52.456;10.850;2022-09-12T02:37:47;14.40;99.90
22192;DHT22;11261;52.456;10.850;2022-09-12T02:40:18;14.30;99.90
22192;DHT22;11261;52.456;10.850;2022-09-12T02:42:46;14.40;99.90
22192;DHT22;11261;52.456;10.850;2022-09-12T02:45:15;14.30;99.90
22192;DHT22;11261;52.456;10.850;2022-09-12T02:47:48;14.30;99.90
22192;DHT22;11261;52.456;10.850;2022-09-12T02:50:18;14.30;99.90
22192;DHT22;11261;52.456;10.850;2022-09-12T02:52:47;14.30;99.90
22192;DHT22;11261;52.456;10.850;2022-09-12T02:55:15;14.30;99.90
22192;DHT22;11261;52.456;10.850;2022-09-12T02:57:44;14.20;99.90
22192;DHT22;11261;52.456;10.850;2022-09-12T03:00:13;14.20;99.90
22192;DHT22;11261;52.456;10.850;2022-09-12T03:02:57;14.20;99.90
22192;DHT22;11261;52.456;10.850;2022-09-12T03:05:33;14.20;99.90
22192;DHT22;11261;52.456;10.850;2022-09-12T03:08:33;14.20;99.90
22192;DHT22;11261;52.456;10.850;2022-09-12T03:11:31;14.20;99.90
22192;DHT22;11261;52.456;10.850;2022-09-12T03:14:09;14.20;99.90
22192;DHT22;11261;52.456;10.850;2022-09-12T03:16:46;14.20;99.90
22192;DHT22;11261;52.456;10.850;2022-09-12T03:19:24;14.20;99.90
22192;DHT22;11261;52.456;10.850;2022-09-12T03:22:01;14.00;99.90
22192;DHT22;11261;52.456;10.850;2022-09-12T03:24:32;13.60;99.90
22192;DHT22;11261;52.456;10.850;2022-09-12T03:27:06;13.80;99.90
22192;DHT22;11261;52.456;10.850;2022-09-12T03:29:37;13.90;99.90
22192;DHT22;11261;52.456;10.850;2022-09-12T03:32:06;13.90;99.90
22192;DHT22;11261;52.456;10.850;2022-09-12T03:34:36;13.70;99.90
22192;DHT22;11261;52.456;10.850;2022-09-12T03:37:05;13.50;99.90
22192;DHT22;11261;52.456;10.850;2022-09-12T03:39:33;13.60;99.90
22192;DHT22;11261;52.456;10.850;2022-09-12T03:42:01;13.60;99.90
22192;DHT22;11261;52.456;10.850;2022-09-12T03:44:29;13.60;99.90
22192;DHT22;11261;52.456;10.850;2022-09-12T03:46:57;13.50;99.90
22192;DHT22;11261;52.456;10.850;2022-09-12T03:49:25;13.60;99.90
22192;DHT22;11261;52.456;10.850;2022-09-12T03:51:55;13.60;99.90
22192;DHT22;11261;52.456;10.850;2022-09-12T03:54:23;13.60;99.90
22192;DHT22;11261;52.456;10.850;2022-09-12T03:56:51;13.70;99.90
22192;DHT22;11261;52.456;10.850;2022-09-12T03:59:19;13.50;99.90
22192;DHT22;11261;52.456;10.850;2022-09-12T04:01:47;13.50;99.90
22192;DHT22;11261;52.456;10.850;2022-09-12T04:04:15;13.20;99.90
22192;DHT22;11261;52.456;10.850;2022-09-12T04:06:43;12.90;99.90
22192;DHT22;11261;52.456;10.850;2022-09-12T04:09:13;13.00;99.90
22192;DHT22;11261;52.456;10.850;2022-09-12T04:11:41;14.90;99.90
22192;DHT22;11261;52.456;10.850;2022-09-12T04:14:09;14.40;99.90
22192;DHT22;11261;52.456;10.850;2022-09-12T04:16:37;14.10;99.90
22192;DHT22;11261;52.456;10.850;2022-09-12T04:19:05;13.90;99.90
22192;DHT22;11261;52.456;10.850;2022-09-12T04:21:33;13.60;99.90
22192;DHT22;11261;52.456;10.850;2022-09-12T04:24:02;13.30;99.90
22192;DHT22;11261;52.456;10.850;2022-09-12T04:26:31;13.10;99.90
22192;DHT22;11261;52.456;10.850;2022-09-12T04:28:59;13.20;99.90
22192;DHT22;11261;52.456;10.850;2022-09-12T04:31:27;13.50;99.90
22192;DHT22;11261;52.456;10.850;2022-09-12T04:33:56;15.30;99.90
22192;DHT22;11261;52.456;10.850;2022-09-12T04:36:26;15.80;99.90
22192;DHT22;11261;52.456;10.850;2022-09-12T04:38:54;15.10;99.90
22192;DHT22;11261;52.456;10.850;2022-09-12T04:41:25;14.00;99.90
22192;DHT22;11261;52.456;10.850;2022-09-12T04:43:56;13.60;99.90
22192;DHT22;11261;52.456;10.850;2022-09-12T04:46:25;13.60;99.90
22192;DHT22;11261;52.456;10.850;2022-09-12T04:48:53;13.40;99.90
22192;DHT22;11261;52.456;10.850;2022-09-12T04:51:25;13.60;99.90
22192;DHT22;11261;52.456;10.850;2022-09-12T04:53:56;13.60;99.90
22192;DHT22;11261;52.456;10.850;2022-09-12T04:56:25;13.70;99.90
22192;DHT22;11261;52.456;10.850;2022-09-12T04:58:55;13.50;99.90
22192;DHT22;11261;52.456;10.850;2022-09-12T05:01:24;13.50;99.90
22192;DHT22;11261;52.456;10.850;2022-09-12T05:03:53;13.60;99.90
22192;DHT22;11261;52.456;10.850;2022-09-12T05:06:23;13.70;99.90
22192;DHT22;11261;52.456;10.850;2022-09-12T05:08:52;13.80;99.90
22192;DHT22;11261;52.456;10.850;2022-09-12T05:11:24;13.80;99.90
22192;DHT22;11261;52.456;10.850;2022-09-12T05:14:14;13.90;99.90
22192;DHT22;11261;52.456;10.850;2022-09-12T05:16:42;13.80;99.90
22192;DHT22;11261;52.456;10.850;2022-09-12T05:19:15;13.90;99.90
22192;DHT22;11261;52.456;10.850;2022-09-12T05:21:43;13.80;99.90
22192;DHT22;11261;52.456;10.850;2022-09-12T05:24:12;13.80;99.90
22192;DHT22;11261;52.456;10.850;2022-09-12T05:26:40;13.50;99.90
22192;DHT22;11261;52.456;10.850;2022-09-12T05:29:08;13.50;99.90
22192;DHT22;11261;52.456;10.850;2022-09-12T05:31:38;13.70;99.90
22192;DHT22;11261;52.456;10.850;2022-09-12T05:34:07;13.60;99.90
22192;DHT22;11261;52.456;10.850;2022-09-12T05:36:36;13.30;99.90
22192;DHT22;11261;52.456;10.850;2022-09-12T05:39:04;13.60;99.90
22192;DHT22;11261;52.456;10.850;2022-09-12T05:41:33;13.70;99.90
22192;DHT22;11261;52.456;10.850;2022-09-12T05:44:04;13.80;99.90
22192;DHT22;11261;52.456;10.850;2022-09-12T05:46:36;13.90;99.90
22192;DHT22;11261;52.456;10.850;2022-09-12T05:49:09;13.70;99.90
22192;DHT22;11261;52.456;10.850;2022-09-12T05:51:39;13.60;99.90
22192;DHT22;11261;52.456;10.850;2022-09-12T05:54:09;13.30;99.90
22192;DHT22;11261;52.456;10.850;2022-09-12T05:56:40;13.70;99.90
22192;DHT22;11261;52.456;10.850;2022-09-12T05:59:11;14.00;99.90
22192;DHT22;11261;52.456;10.850;2022-09-12T06:01:40;14.40;99.90
22192;DHT22;11261;52.456;10.850;2022-09-12T06:04:10;15.00;99.90
22192;DHT22;11261;52.456;10.850;2022-09-12T06:06:41;15.20;99.90
22192;DHT22;11261;52.456;10.850;2022-09-12T06:09:11;15.50;99.90
22192;DHT22;11261;52.456;10.850;2022-09-12T06:11:40;15.50;99.90
22192;DHT22;11261;52.456;10.850;2022-09-12T06:14:10;15.80;99.90
22192;DHT22;11261;52.456;10.850;2022-09-12T06:16:38;15.70;99.90
22192;DHT22;11261;52.456;10.850;2022-09-12T06:19:12;15.80;99.90
22192;DHT22;11261;52.456;10.850;2022-09-12T06:21:41;15.90;99.90
22192;DHT22;11261;52.456;10.850;2022-09-12T06:24:10;16.30;99.90
22192;DHT22;11261;52.456;10.850;2022-09-12T06:26:38;16.90;99.90
22192;DHT22;11261;52.456;10.850;2022-09-12T06:29:06;17.20;99.90
22192;DHT22;11261;52.456;10.850;2022-09-12T06:31:35;17.30;99.90
22192;DHT22;11261;52.456;10.850;2022-09-12T06:34:05;17.30;99.90
22192;DHT22;11261;52.456;10.850;2022-09-12T06:36:36;17.10;99.90
22192;DHT22;11261;52.456;10.850;2022-09-12T06:39:08;17.20;99.90
22192;DHT22;11261;52.456;10.850;2022-09-12T06:41:37;17.00;99.90
22192;DHT22;11261;52.456;10.850;2022-09-12T06:44:11;17.20;99.90
22192;DHT22;11261;52.456;10.850;2022-09-12T06:46:40;17.50;99.90
22192;DHT22;11261;52.456;10.850;2022-09-12T06:49:08;17.60;99.90
22192;DHT22;11261;52.456;10.850;2022-09-12T06:51:38;17.00;99.90
22192;DHT22;11261;52.456;10.850;2022-09-12T06:54:08;17.30;99.90
22192;DHT22;11261;52.456;10.850;2022-09-12T06:56:36;17.90;99.90
22192;DHT22;11261;52.456;10.850;2022-09-12T06:59:04;18.10;99.90
22192;DHT22;11261;52.456;10.850;2022-09-12T07:01:33;17.90;99.90
22192;DHT22;11261;52.456;10.850;2022-09-12T07:04:02;18.30;99.90
22192;DHT22;11261;52.456;10.850;2022-09-12T07:06:35;18.30;99.90
22192;DHT22;11261;52.456;10.850;2022-09-12T07:09:07;18.30;99.90
22192;DHT22;11261;52.456;10.850;2022-09-12T07:11:37;18.90;99.90
22192;DHT22;11261;52.456;10.850;2022-09-12T07:14:06;18.20;99.90
22192;DHT22;11261;52.456;10.850;2022-09-12T07:16:35;18.60;99.90
22192;DHT22;11261;52.456;10.850;2022-09-12T07:19:05;19.90;99.90
22192;DHT22;11261;52.456;10.850;2022-09-12T07:21:34;20.80;99.90
22192;DHT22;11261;52.456;10.850;2022-09-12T07:24:08;21.20;99.90
22192;DHT22;11261;52.456;10.850;2022-09-12T07:26:37;21.70;99.90
22192;DHT22;11261;52.456;10.850;2022-09-12T07:29:12;21.70;99.90
22192;DHT22;11261;52.456;10.850;2022-09-12T07:32:02;21.90;99.90
22192;DHT22;11261;52.456;10.850;2022-09-12T07:34:31;22.40;99.90
22192;DHT22;11261;52.456;10.850;2022-09-12T07:36:59;22.60;99.90
22192;DHT22;11261;52.456;10.850;2022-09-12T07:39:28;22.50;99.90
22192;DHT22;11261;52.456;10.850;2022-09-12T07:41:57;22.80;99.90
22192;DHT22;11261;52.456;10.850;2022-09-12T07:44:26;23.20;99.90
22192;DHT22;11261;52.456;10.850;2022-09-12T07:46:54;23.20;99.90
22192;DHT22;11261;52.456;10.850;2022-09-12T07:49:22;23.40;99.90
22192;DHT22;11261;52.456;10.850;2022-09-12T07:51:50;23.40;99.90
22192;DHT22;11261;52.456;10.850;2022-09-12T07:54:19;22.80;99.90
22192;DHT22;11261;52.456;10.850;2022-09-12T07:56:48;22.20;99.90
22192;DHT22;11261;52.456;10.850;2022-09-12T07:59:17;22.10;99.90
22192;DHT22;11261;52.456;10.850;2022-09-12T08:02:08;22.20;99.90
22192;DHT22;11261;52.456;10.850;2022-09-12T08:04:42;21.40;99.90
22192;DHT22;11261;52.456;10.850;2022-09-12T08:07:10;22.00;99.90
22192;DHT22;11261;52.456;10.850;2022-09-12T08:09:38;22.70;99.90
22192;DHT22;11261;52.456;10.850;2022-09-12T08:12:08;22.70;99.90
22192;DHT22;11261;52.456;10.850;2022-09-12T08:14:36;23.20;99.90
22192;DHT22;11261;52.456;10.850;2022-09-12T08:17:04;22.90;99.90
22192;DHT22;11261;52.456;10.850;2022-09-12T08:19:32;22.90;99.90
22192;DHT22;11261;52.456;10.850;2022-09-12T08:22:00;23.20;99.90
22192;DHT22;11261;52.456;10.850;2022-09-12T08:24:28;23.50;99.90
22192;DHT22;11261;52.456;10.850;2022-09-12T08:26:58;23.40;99.90
22192;DHT22;11261;52.456;10.850;2022-09-12T08:29:27;23.70;99.90
22192;DHT22;11261;52.456;10.850;2022-09-12T08:31:55;24.00;99.90
22192;DHT22;11261;52.456;10.850;2022-09-12T08:34:24;24.40;99.90
22192;DHT22;11261;52.456;10.850;2022-09-12T08:36:52;24.70;99.90
22192;DHT22;11261;52.456;10.850;2022-09-12T08:39:20;25.10;99.90
22192;DHT22;11261;52.456;10.850;2022-09-12T08:41:56;25.10;99.90
22192;DHT22;11261;52.456;10.850;2022-09-12T08:47:32;24.20;99.90
22192;DHT22;11261;52.456;10.850;2022-09-12T08:50:09;25.00;99.90
22192;DHT22;11261;52.456;10.850;2022-09-12T08:52:44;25.00;99.90
22192;DHT22;11261;52.456;10.850;2022-09-12T08:55:24;25.30;99.90
22192;DHT22;11261;52.456;10.850;2022-09-12T08:57:54;25.00;99.90
22192;DHT22;11261;52.456;10.850;2022-09-12T09:00:28;24.00;99.90
22192;DHT22;11261;52.456;10.850;2022-09-12T09:03:19;23.90;99.90
22192;DHT22;11261;52.456;10.850;2022-09-12T09:06:01;23.80;99.90
22192;DHT22;11261;52.456;10.850;2022-09-12T09:08:42;24.30;99.90
22192;DHT22;11261;52.456;10.850;2022-09-12T09:11:21;24.50;99.90
22192;DHT22;11261;52.456;10.850;2022-09-12T09:14:03;24.60;99.90
22192;DHT22;11261;52.456;10.850;2022-09-12T09:16:56;24.30;99.90
22192;DHT22;11261;52.456;10.850;2022-09-12T09:19:27;25.20;99.90
22192;DHT22;11261;52.456;10.850;2022-09-12T09:21:58;24.30;99.90
22192;DHT22;11261;52.456;10.850;2022-09-12T09:24:32;24.70;99.90
22192;DHT22;11261;52.456;10.850;2022-09-12T09:27:03;24.90;99.90
22192;DHT22;11261;52.456;10.850;2022-09-12T09:29:54;25.50;99.90
22192;DHT22;11261;52.456;10.850;2022-09-12T09:32:27;25.40;99.90
22192;DHT22;11261;52.456;10.850;2022-09-12T09:34:56;24.90;99.90
22192;DHT22;11261;52.456;10.850;2022-09-12T09:37:31;24.40;99.90
22192;DHT22;11261;52.456;10.850;2022-09-12T09:40:09;23.50;99.90
22192;DHT22;11261;52.456;10.850;2022-09-12T09:42:48;22.00;99.90
22192;DHT22;11261;52.456;10.850;2022-09-12T09:45:21;23.50;99.90
22192;DHT22;11261;52.456;10.850;2022-09-12T09:47:54;24.10;99.90
22192;DHT22;11261;52.456;10.850;2022-09-12T09:50:24;23.40;99.90
22192;DHT22;11261;52.456;10.850;2022-09-12T09:52:53;24.10;99.90
22192;DHT22;11261;52.456;10.850;2022-09-12T09:55:39;23.80;99.90
22192;DHT22;11261;52.456;10.850;2022-09-12T09:58:09;23.40;99.90
22192;DHT22;11261;52.456;10.850;2022-09-12T10:00:38;24.70;99.90
22192;DHT22;11261;52.456;10.850;2022-09-12T10:03:24;25.50;99.90
22192;DHT22;11261;52.456;10.850;2022-09-12T10:05:55;25.90;99.90
22192;DHT22;11261;52.456;10.850;2022-09-12T10:08:26;25.90;99.90
22192;DHT22;11261;52.456;10.850;2022-09-12T10:10:58;26.30;99.90
22192;DHT22;11261;52.456;10.850;2022-09-12T10:13:36;26.30;99.90
22192;DHT22;11261;52.456;10.850;2022-09-12T10:16:17;26.50;99.90
22192;DHT22;11261;52.456;10.850;2022-09-12T10:18:48;26.90;99.90
22192;DHT22;11261;52.456;10.850;2022-09-12T10:21:29;27.50;99.90
22192;DHT22;11261;52.456;10.850;2022-09-12T10:24:04;28.10;99.90
22192;DHT22;11261;52.456;10.850;2022-09-12T10:26:36;27.20;99.90
22192;DHT22;11261;52.456;10.850;2022-09-12T10:29:17;26.20;99.90
22192;DHT22;11261;52.456;10.850;2022-09-12T10:31:49;26.70;99.90
22192;DHT22;11261;52.456;10.850;2022-09-12T10:34:25;26.60;99.90
22192;DHT22;11261;52.456;10.850;2022-09-12T10:37:02;24.70;99.90
22192;DHT22;11261;52.456;10.850;2022-09-12T10:39:31;24.00;99.90
22192;DHT22;11261;52.456;10.850;2022-09-12T10:42:02;25.00;99.90
22192;DHT22;11261;52.456;10.850;2022-09-12T10:44:32;23.60;99.90
22192;DHT22;11261;52.456;10.850;2022-09-12T10:47:19;24.90;99.90
22192;DHT22;11261;52.456;10.850;2022-09-12T10:49:49;26.10;99.90
22192;DHT22;11261;52.456;10.850;2022-09-12T10:52:20;23.50;99.90
22192;DHT22;11261;52.456;10.850;2022-09-12T10:54:49;24.10;99.90
22192;DHT22;11261;52.456;10.850;2022-09-12T11:00:16;26.50;99.90
22192;DHT22;11261;52.456;10.850;2022-09-12T11:03:08;27.10;99.90
22192;DHT22;11261;52.456;10.850;2022-09-12T11:05:51;27.20;99.90
22192;DHT22;11261;52.456;10.850;2022-09-12T11:08:36;27.50;99.90
22192;DHT22;11261;52.456;10.850;2022-09-12T11:11:12;25.70;99.90
22192;DHT22;11261;52.456;10.850;2022-09-12T11:14:01;26.50;99.90
22192;DHT22;11261;52.456;10.850;2022-09-12T11:16:39;26.50;99.90
22192;DHT22;11261;52.456;10.850;2022-09-12T11:19:32;25.50;99.90
22192;DHT22;11261;52.456;10.850;2022-09-12T11:22:13;25.70;99.90
22192;DHT22;11261;52.456;10.850;2022-09-12T11:25:03;25.20;99.90
22192;DHT22;11261;52.456;10.850;2022-09-12T11:27:45;24.40;99.90
22192;DHT22;11261;52.456;10.850;2022-09-12T11:30:17;23.30;99.90
22192;DHT22;11261;52.456;10.850;2022-09-12T11:33:06;22.90;99.90
22192;DHT22;11261;52.456;10.850;2022-09-12T11:35:44;22.50;99.90
22192;DHT22;11261;52.456;10.850;2022-09-12T11:38:43;22.30;99.90
22192;DHT22;11261;52.456;10.850;2022-09-12T12:58:28;24.00;99.90
22192;DHT22;11261;52.456;10.850;2022-09-12T13:01:10;23.10;99.90
22192;DHT22;11261;52.456;10.850;2022-09-12T13:03:42;23.20;99.90
22192;DHT22;11261;52.456;10.850;2022-09-12T13:06:24;23.60;99.90
22192;DHT22;11261;52.456;10.850;2022-09-12T13:08:58;24.50;99.90
22192;DHT22;11261;52.456;10.850;2022-09-12T13:11:31;24.40;99.90
22192;DHT22;11261;52.456;10.850;2022-09-12T13:14:03;24.60;99.90
22192;DHT22;11261;52.456;10.850;2022-09-12T13:16:34;24.60;99.90
22192;DHT22;11261;52.456;10.850;2022-09-12T13:19:05;25.00;99.90
22192;DHT22;11261;52.456;10.850;2022-09-12T13:21:33;25.60;99.90
22192;DHT22;11261;52.456;10.850;2022-09-12T13:24:04;24.80;99.90
22192;DHT22;11261;52.456;10.850;2022-09-12T13:26:34;24.40;99.90
22192;DHT22;11261;52.456;10.850;2022-09-12T13:29:11;25.30;99.90
22192;DHT22;11261;52.456;10.850;2022-09-12T13:31:43;25.60;99.90
22192;DHT22;11261;52.456;10.850;2022-09-12T13:34:17;25.80;99.90
22192;DHT22;11261;52.456;10.850;2022-09-12T13:39:58;23.50;99.90
22192;DHT22;11261;52.456;10.850;2022-09-12T13:42:38;22.80;99.90
22192;DHT22;11261;52.456;10.850;2022-09-12T13:45:14;24.00;99.90
22192;DHT22;11261;52.456;10.850;2022-09-12T13:47:46;24.60;99.90
22192;DHT22;11261;52.456;10.850;2022-09-12T13:50:19;23.30;99.90
22192;DHT22;11261;52.456;10.850;2022-09-12T13:52:52;22.90;99.90
22192;DHT22;11261;52.456;10.850;2022-09-12T13:55:28;23.30;99.90
22192;DHT22;11261;52.456;10.850;2022-09-12T13:58:00;23.50;99.90
22192;DHT22;11261;52.456;10.850;2022-09-12T14:00:31;23.20;99.90
22192;DHT22;11261;52.456;10.850;2022-09-12T14:03:01;23.40;99.90
22192;DHT22;11261;52.456;10.850;2022-09-12T14:05:57;23.30;99.90
22192;DHT22;11261;52.456;10.850;2022-09-12T14:08:26;24.20;99.90
22192;DHT22;11261;52.456;10.850;2022-09-12T14:10:54;25.40;99.90
22192;DHT22;11261;52.456;10.850;2022-09-12T14:13:24;26.00;99.90
22192;DHT22;11261;52.456;10.850;2022-09-12T14:15:57;26.30;99.90
22192;DHT22;11261;52.456;10.850;2022-09-12T14:18:27;25.30;99.90
22192;DHT22;11261;52.456;10.850;2022-09-12T14:21:00;23.60;99.90
22192;DHT22;11261;52.456;10.850;2022-09-12T14:23:39;22.50;99.90
22192;DHT22;11261;52.456;10.850;2022-09-12T14:26:10;22.20;99.90
22192;DHT22;11261;52.456;10.850;2022-09-12T14:28:39;22.70;99.90
22192;DHT22;11261;52.456;10.850;2022-09-12T14:31:22;22.60;99.90
22192;DHT22;11261;52.456;10.850;2022-09-12T14:33:52;22.40;99.90
22192;DHT22;11261;52.456;10.850;2022-09-12T14:36:23;22.60;99.90
22192;DHT22;11261;52.456;10.850;2022-09-12T14:38:54;23.30;99.90
22192;DHT22;11261;52.456;10.850;2022-09-12T14:41:26;23.10;99.90
22192;DHT22;11261;52.456;10.850;2022-09-12T14:43:57;23.80;99.90
22192;DHT22;11261;52.456;10.850;2022-09-12T14:46:31;24.50;99.90
22192;DHT22;11261;52.456;10.850;2022-09-12T14:49:06;24.30;99.90
22192;DHT22;11261;52.456;10.850;2022-09-12T14:51:37;24.60;99.90
22192;DHT22;11261;52.456;10.850;2022-09-12T14:54:33;24.50;99.90
22192;DHT22;11261;52.456;10.850;2022-09-12T14:57:05;24.20;99.90
22192;DHT22;11261;52.456;10.850;2022-09-12T14:59:38;24.60;99.90
22192;DHT22;11261;52.456;10.850;2022-09-12T15:02:24;25.30;99.90
22192;DHT22;11261;52.456;10.850;2022-09-12T15:05:15;25.80;99.90
22192;DHT22;11261;52.456;10.850;2022-09-12T15:07:44;25.80;99.90
22192;DHT22;11261;52.456;10.850;2022-09-12T15:10:23;25.70;99.90
22192;DHT22;11261;52.456;10.850;2022-09-12T15:13:09;25.80;99.90
22192;DHT22;11261;52.456;10.850;2022-09-12T15:15:41;26.00;99.90
22192;DHT22;11261;52.456;10.850;2022-09-12T15:18:11;25.80;99.90
22192;DHT22;11261;52.456;10.850;2022-09-12T15:20:41;23.90;99.90
22192;DHT22;11261;52.456;10.850;2022-09-12T15:23:18;23.10;99.90
22192;DHT22;11261;52.456;10.850;2022-09-12T15:25:47;23.10;99.90
22192;DHT22;11261;52.456;10.850;2022-09-12T15:28:18;24.10;99.90
22192;DHT22;11261;52.456;10.850;2022-09-12T15:30:48;24.50;99.90
22192;DHT22;11261;52.456;10.850;2022-09-12T15:33:20;24.40;99.90
22192;DHT22;11261;52.456;10.850;2022-09-12T15:35:50;23.50;99.90
22192;DHT22;11261;52.456;10.850;2022-09-12T15:38:19;23.50;99.90
22192;DHT22;11261;52.456;10.850;2022-09-12T15:40:52;22.80;99.90
22192;DHT22;11261;52.456;10.850;2022-09-12T15:43:21;23.50;99.90
22192;DHT22;11261;52.456;10.850;2022-09-12T15:45:49;23.10;99.90
22192;DHT22;11261;52.456;10.850;2022-09-12T15:48:19;22.60;99.90
22192;DHT22;11261;52.456;10.850;2022-09-12T15:50:47;22.40;99.90
22192;DHT22;11261;52.456;10.850;2022-09-12T15:53:16;22.30;99.90
22192;DHT22;11261;52.456;10.850;2022-09-12T15:55:44;22.10;99.90
22192;DHT22;11261;52.456;10.850;2022-09-12T15:58:12;22.30;99.90
22192;DHT22;11261;52.456;10.850;2022-09-12T16:00:40;22.20;99.90
22192;DHT22;11261;52.456;10.850;2022-09-12T16:03:21;22.10;99.90
22192;DHT22;11261;52.456;10.850;2022-09-12T16:05:49;21.90;99.90
22192;DHT22;11261;52.456;10.850;2022-09-12T16:08:21;21.80;99.90
22192;DHT22;11261;52.456;10.850;2022-09-12T16:10:52;21.80;99.90
22192;DHT22;11261;52.456;10.850;2022-09-12T16:13:21;21.80;99.90
22192;DHT22;11261;52.456;10.850;2022-09-12T16:15:49;21.80;99.90
22192;DHT22;11261;52.456;10.850;2022-09-12T16:18:20;21.60;99.90
22192;DHT22;11261;52.456;10.850;2022-09-12T16:20:50;21.80;99.90
22192;DHT22;11261;52.456;10.850;2022-09-12T16:23:19;21.70;99.90
22192;DHT22;11261;52.456;10.850;2022-09-12T16:25:55;21.70;99.90
22192;DHT22;11261;52.456;10.850;2022-09-12T16:28:23;21.70;99.90
22192;DHT22;11261;52.456;10.850;2022-09-12T16:30:55;21.80;99.90
22192;DHT22;11261;52.456;10.850;2022-09-12T16:33:24;22.10;99.90
22192;DHT22;11261;52.456;10.850;2022-09-12T16:36:00;21.80;99.90
22192;DHT22;11261;52.456;10.850;2022-09-12T16:38:28;22.00;99.90
22192;DHT22;11261;52.456;10.850;2022-09-12T16:41:00;22.30;99.90
22192;DHT22;11261;52.456;10.850;2022-09-12T16:43:29;22.20;99.90
22192;DHT22;11261;52.456;10.850;2022-09-12T16:46:01;22.10;99.90
22192;DHT22;11261;52.456;10.850;2022-09-12T16:48:32;21.70;99.90
22192;DHT22;11261;52.456;10.850;2022-09-12T16:51:03;21.50;99.90
22192;DHT22;11261;52.456;10.850;2022-09-12T16:53:34;21.50;99.90
22192;DHT22;11261;52.456;10.850;2022-09-12T16:56:02;21.70;99.90
22192;DHT22;11261;52.456;10.850;2022-09-12T16:58:31;21.60;99.90
22192;DHT22;11261;52.456;10.850;2022-09-12T17:01:08;21.50;99.90
22192;DHT22;11261;52.456;10.850;2022-09-12T17:03:38;21.30;99.90
22192;DHT22;11261;52.456;10.850;2022-09-12T17:06:08;21.20;99.90
22192;DHT22;11261;52.456;10.850;2022-09-12T17:08:38;21.30;99.90
22192;DHT22;11261;52.456;10.850;2022-09-12T17:11:08;21.00;99.90
22192;DHT22;11261;52.456;10.850;2022-09-12T17:13:38;21.10;99.90
22192;DHT22;11261;52.456;10.850;2022-09-12T17:16:27;21.40;99.90
22192;DHT22;11261;52.456;10.850;2022-09-12T17:18:57;21.50;99.90